Time;durP1;ratioP1;P1;durP2;ratioP2;P2;SDS_P1;SDS_P2;PMS_P1;PMS_P2;Temp;Humidity;BMP_temperature;BMP_pressure;BME280_temperature;BME280_humidity;BME280_pressure;Samples;Min_cycle;Max_cycle;Signal;HPM_P1;HPM_P2
2023/06/21 07:15:51;;;;;;;;;;;;;;;-140.72;100.00;52407.09;5037621;23;20028;-75
2023/06/21 07:18:16;;;;;;;;;;;;;;;-140.72;100.00;52415.22;4974795;28;20431;-75
2023/06/21 07:20:41;;;;;;;;;;;;;;;-140.72;100.00;52388.84;4981825;28;20260;-75
2023/06/21 07:23:19;;;;;;;;;;;;;;;-140.72;100.00;52417.25;4970993;28;19918;-73
2023/06/21 07:25:52;;;;;;;;;;;;;;;-140.72;100.00;52417.25;4975919;28;19918;-74
2023/06/21 07:28:17;;;;;;;;;;;;;;;-140.72;100.00;52392.88;4972864;28;20376;-74
2023/06/21 07:30:43;;;;;;;;;;;;;;;-140.72;100.00;52457.81;4968993;28;19925;-73
2023/06/21 07:33:08;;;;;;;;;;;;;;;-140.72;100.00;52407.09;4972061;28;19929;-74
2023/06/21 07:35:33;;;;;;;;;;;;;;;-140.72;100.00;52390.84;4956970;28;19930;-73
2023/06/21 07:37:59;;;;;;;;;;;;;;;-140.72;100.00;52415.22;4967867;28;19930;-73
2023/06/21 07:40:24;;;;;;;;;;;;;;;-140.72;100.00;52419.28;4956621;28;20384;-74
2023/06/21 07:42:50;;;;;;;;;;;;;;;-140.72;100.00;52403.03;4967889;28;19922;-74
2023/06/21 07:45:15;;;;;;;;;;;;;;;-140.72;100.00;52376.66;4974588;28;19926;-74
2023/06/21 07:47:41;;;;;;;;;;;;;;;-140.72;100.00;52398.97;4970707;28;19922;-74
2023/06/21 07:50:07;;;;;;;;;;;;;;;-140.72;100.00;52354.34;4969537;28;19919;-73
2023/06/21 07:52:32;;;;;;;;;;;;;;;-140.72;100.00;52366.50;4973405;28;20017;-73
2023/06/21 07:54:57;;;;;;;;;;;;;;;-140.72;100.00;52368.53;4973169;28;19946;-74
2023/06/21 07:57:22;;;;;;;;;;;;;;;-140.72;100.00;52362.44;4953592;28;19918;-70
2023/06/21 07:59:48;;;;;;;;;;;;;;;-140.72;100.00;52382.75;4951866;28;19922;-70
2023/06/21 08:02:18;;;;;;;;;;;;;;;-140.72;100.00;52378.69;4951131;28;20013;-70
2023/06/21 08:04:44;;;;;;;;;;;;;;;-140.72;100.00;52352.31;4964726;28;19926;-69
2023/06/21 08:07:09;;;;;;;;;;;;;;;-140.72;100.00;52362.44;4968385;28;20347;-70
2023/06/21 08:09:34;;;;;;;;;;;;;;;-140.72;100.00;52362.44;4969684;28;19933;-71
2023/06/21 08:12:00;;;;;;;;;;;;;;;-140.72;100.00;52358.41;4970200;28;20274;-71
2023/06/21 08:14:25;;;;;;;;;;;;;;;-140.72;100.00;52325.94;4964984;28;20408;-71
2023/06/21 08:16:51;;;;;;;;;;;;;;;-140.72;100.00;52346.22;4969261;28;19976;-71
2023/06/21 08:19:16;;;;;;;;;;;;;;;-140.72;100.00;52321.88;4966766;28;20242;-76
2023/06/21 08:24:16;;;;;;;;;;;;;;;-140.72;100.00;52330.00;5090621;23;19949;-77
2023/06/21 08:26:41;;;;;;;;;;;;;;;-140.72;100.00;52285.34;4986397;28;20368;-78
2023/06/21 08:29:06;;;;;;;;;;;;;;;-140.72;100.00;52261.00;4994779;28;19926;-77
2023/06/21 08:31:32;;;;;;;;;;;;;;;-140.72;100.00;52313.75;4972575;28;19981;-77
2023/06/21 08:33:57;;;;;;;;;;;;;;;-140.72;100.00;52281.28;4993102;28;19988;-76
2023/06/21 08:36:22;;;;;;;;;;;;;;;-140.72;100.00;52315.78;4973995;28;20264;-73
2023/06/21 08:38:47;;;;;;;;;;;;;;;-140.72;100.00;52295.50;4990320;28;19980;-73
2023/06/21 08:41:13;;;;;;;;;;;;;;;-140.72;100.00;52258.97;4987226;28;19976;-73
2023/06/21 08:43:38;;;;;;;;;;;;;;;-140.72;100.00;52287.38;4975449;28;19929;-74
2023/06/21 08:46:05;;;;;;;;;;;;;;;-140.72;100.00;52273.19;4992030;28;19933;-74
2023/06/21 08:48:31;;;;;;;;;;;;;;;-140.72;100.00;52293.47;4985818;28;20017;-72
2023/06/21 08:50:57;;;;;;;;;;;;;;;-140.72;100.00;52289.41;4989987;28;20012;-74
2023/06/21 08:53:29;;;;;;;;;;;;;;;-140.72;100.00;52305.63;4974101;28;20398;-75
2023/06/21 08:55:56;;;;;;;;;;;;;;;-140.72;100.00;52263.03;4987856;28;20327;-74
2023/06/21 08:58:21;;;;;;;;;;;;;;;-140.72;100.00;52279.25;4985769;28;19952;-75
2023/06/21 09:00:49;;;;;;;;;;;;;;;-140.72;100.00;52220.41;4988820;28;20383;-75
2023/06/21 09:03:15;;;;;;;;;;;;;;;-140.72;100.00;52261.00;4986813;28;19925;-75
2023/06/21 09:05:40;;;;;;;;;;;;;;;-140.72;100.00;52224.47;4984468;28;19976;-75
2023/06/21 09:08:05;;;;;;;;;;;;;;;-140.72;100.00;52202.16;4986563;28;19933;-75
2023/06/21 09:10:31;;;;;;;;;;;;;;;-140.72;100.00;52230.56;4993375;28;19988;-69
2023/06/21 09:12:57;;;;;;;;;;;;;;;-140.72;100.00;52210.28;4988748;28;19937;-68
2023/06/21 09:15:23;;;;;;;;;;;;;;;-140.72;100.00;52196.06;4987256;28;19925;-69
2023/06/21 09:17:49;;;;;;;;;;;;;;;-140.72;100.00;52192.00;4985566;28;19995;-69
2023/06/21 09:20:15;;;;;;;;;;;;;;;-140.72;100.00;52204.19;4985612;28;20052;-69
2023/06/21 09:22:42;;;;;;;;;;;;;;;-140.72;100.00;52189.97;4974784;28;19937;-68
2023/06/21 09:25:07;;;;;;;;;;;;;;;-140.72;100.00;52183.91;4988507;28;19969;-69
2023/06/21 09:27:33;;;;;;;;;;;;;;;-140.72;97.31;52145.34;4990928;28;20005;-68
2023/06/21 09:30:00;;;;;;;;;;;;;;;-140.72;12.17;52159.56;4990858;28;21616;-69
2023/06/21 09:32:25;;;;;;;;;;;;;;;-140.72;0.00;52179.84;4977488;28;19944;-68
2023/06/21 09:34:51;;;;;;;;;;;;;;;-140.72;0.00;52163.59;4985541;28;19929;-69
2023/06/21 09:37:36;;;;;;;;;;;;;;;-140.72;0.00;52163.59;4990320;28;19925;-69
2023/06/21 09:40:01;;;;;;;;;;;;;;;-140.72;0.00;52104.75;4987333;28;19922;-69
2023/06/21 09:42:27;;;;;;;;;;;;;;;-140.72;0.00;52106.78;4992289;28;19949;-69
2023/06/21 09:44:53;;;;;;;;;;;;;;;-140.72;0.00;52086.50;4973730;28;19968;-69
2023/06/21 09:47:18;;;;;;;;;;;;;;;-140.72;0.00;52064.19;4986186;28;19930;-69
2023/06/21 09:49:47;;;;;;;;;;;;;;;-140.72;0.00;52121.00;4985688;28;19947;-70
2023/06/21 09:52:17;;;;;;;;;;;;;;;-140.72;0.00;52062.16;4984891;28;20334;-69
2023/06/21 09:54:43;;;;;;;;;;;;;;;-140.72;0.00;52072.31;4986051;28;20376;-70
2023/06/21 09:57:08;;;;;;;;;;;;;;;-140.72;0.00;52001.28;4983246;28;19969;-69
2023/06/21 09:59:37;;;;;;;;;;;;;;;-140.72;0.00;52039.84;4987661;28;19922;-70
2023/06/21 10:02:03;;;;;;;;;;;;;;;-140.72;0.00;52052.00;4967185;28;19926;-72
2023/06/21 10:04:28;;;;;;;;;;;;;;;-140.72;0.00;52047.97;4987925;28;19922;-70
2023/06/21 10:06:56;;;;;;;;;;;;;;;-140.72;0.00;52029.69;4985484;28;19922;-70
2023/06/21 10:09:22;;;;;;;;;;;;;;;-140.72;0.00;52009.41;4979797;28;19922;-70
2023/06/21 10:11:50;;;;;;;;;;;;;;;-140.72;0.00;52086.50;4987574;28;19932;-71
2023/06/21 10:14:19;;;;;;;;;;;;;;;-140.72;0.00;51989.13;4988235;28;19980;-72
2023/06/21 10:16:47;;;;;;;;;;;;;;;-140.72;0.00;52047.97;4991279;28;19918;-70
2023/06/21 10:19:12;;;;;;;;;;;;;;;-140.72;0.00;52177.81;4999236;28;20060;-70
2023/06/21 10:21:37;;;;;;;;;;;;;;;-140.72;0.00;52153.47;4992893;28;20337;-70
2023/06/21 10:24:05;;;;;;;;;;;;;;;-140.72;0.00;52072.31;4986006;28;20017;-71
2023/06/21 10:26:32;;;;;;;;;;;;;;;-140.72;0.00;52041.88;4986437;28;19996;-70
2023/06/21 10:28:59;;;;;;;;;;;;;;;-140.72;0.00;52001.28;4988192;28;20372;-69
2023/06/21 10:31:24;;;;;;;;;;;;;;;-140.72;0.00;51940.41;4982924;28;19918;-70
2023/06/21 10:33:51;;;;;;;;;;;;;;;-140.72;0.00;51903.91;4985246;28;20016;-70
2023/06/21 10:36:18;;;;;;;;;;;;;;;-140.72;0.00;51942.44;4991138;28;20279;-70
2023/06/21 10:38:44;;;;;;;;;;;;;;;-140.72;0.00;51834.91;4990386;28;19976;-71
2023/06/21 10:41:11;;;;;;;;;;;;;;;-140.72;0.00;52001.28;4992129;28;20237;-70
2023/06/21 10:43:36;;;;;;;;;;;;;;;-140.72;0.00;52118.97;4991439;28;20005;-70
2023/06/21 10:46:04;;;;;;;;;;;;;;;-140.72;0.00;51978.97;4991982;28;20324;-70
2023/06/21 10:48:31;;;;;;;;;;;;;;;-140.72;0.00;51948.53;4991034;28;19925;-71
2023/06/21 10:50:56;;;;;;;;;;;;;;;-140.72;0.00;51887.66;4991888;28;20363;-71
2023/06/21 10:53:23;;;;;;;;;;;;;;;-140.72;0.00;51978.97;4989360;28;19918;-70
2023/06/21 10:55:49;;;;;;;;;;;;;;;-140.72;0.00;51946.50;4991031;28;19941;-70
2023/06/21 10:58:14;;;;;;;;;;;;;;;-140.72;0.00;52041.88;4990210;28;20372;-70
2023/06/21 11:00:42;;;;;;;;;;;;;;;-140.72;0.00;52090.56;4991055;28;19917;-70
2023/06/21 11:03:12;;;;;;;;;;;;;;;-140.72;0.00;52009.41;4990487;28;19922;-70
2023/06/21 11:05:38;;;;;;;;;;;;;;;-140.72;0.00;51964.78;4992204;28;20037;-70
2023/06/21 11:08:05;;;;;;;;;;;;;;;-140.72;0.00;52005.34;4994124;28;19972;-70
2023/06/21 11:10:41;;;;;;;;;;;;;;;-140.72;0.00;52037.81;4995662;28;19918;-70
2023/06/21 11:13:06;;;;;;;;;;;;;;;-140.72;0.00;51948.53;4976733;28;19918;-70
2023/06/21 11:15:32;;;;;;;;;;;;;;;-140.72;0.00;51944.47;4977534;28;19945;-70
2023/06/21 11:18:02;;;;;;;;;;;;;;;-140.72;0.00;51887.66;4992122;28;20348;-71
2023/06/21 11:20:31;;;;;;;;;;;;;;;-140.72;0.00;51946.50;4993842;28;19928;-72
2023/06/21 11:23:17;;;;;;;;;;;;;;;-140.72;0.00;51938.41;4989978;28;19925;-70
2023/06/21 11:25:52;;;;;;;;;;;;;;;-140.72;0.00;51936.38;4993811;28;19922;-71
2023/06/21 11:28:17;;;;;;;;;;;;;;;-140.72;0.00;51869.41;4976780;28;20325;-71
2023/06/21 11:31:02;;;;;;;;;;;;;;;-140.72;0.00;51869.41;4993911;28;19918;-71
2023/06/21 11:33:29;;;;;;;;;;;;;;;-140.72;0.00;51861.28;4994891;28;19921;-71
2023/06/21 11:36:01;;;;;;;;;;;;;;;-140.72;0.00;52013.47;4978583;28;19922;-71
2023/06/21 11:38:26;;;;;;;;;;;;;;;-140.72;0.00;52037.81;4986923;28;19918;-71
2023/06/21 11:40:51;;;;;;;;;;;;;;;-140.72;0.00;52096.66;4982036;28;19925;-72
2023/06/21 11:43:18;;;;;;;;;;;;;;;-140.72;0.00;52003.31;4974772;28;19980;-70
2023/06/21 11:45:53;;;;;;;;;;;;;;;-140.72;0.00;52169.69;4994182;28;19996;-70
2023/06/21 11:48:23;;;;;;;;;;;;;;;-140.72;0.00;52179.84;4991405;28;19918;-71
2023/06/21 11:50:50;;;;;;;;;;;;;;;-140.72;0.00;52056.06;4991236;28;20278;-71
2023/06/21 11:53:26;;;;;;;;;;;;;;;-140.72;0.00;52054.03;4992598;28;19921;-71
2023/06/21 11:55:52;;;;;;;;;;;;;;;-140.72;0.00;52062.16;4989536;28;19918;-71
2023/06/21 11:58:17;;;;;;;;;;;;;;;-140.72;0.00;52019.56;4974777;28;19969;-71
2023/06/21 12:00:44;;;;;;;;;;;;;;;-140.72;0.00;52037.81;4992648;28;20368;-71
2023/06/21 12:03:10;;;;;;;;;;;;;;;-140.72;0.00;51914.03;4994629;28;19925;-71
2023/06/21 12:06:01;;;;;;;;;;;;;;;-140.72;0.00;51993.19;5002352;28;19925;-71
2023/06/21 12:08:28;;;;;;;;;;;;;;;-140.72;0.00;52011.44;4990951;28;19961;-71
2023/06/21 12:10:58;;;;;;;;;;;;;;;-140.72;0.00;51938.41;4991531;28;19918;-71
2023/06/21 12:13:23;;;;;;;;;;;;;;;-140.72;0.00;51875.50;4986964;28;20348;-71
2023/06/21 12:16:04;;;;;;;;;;;;;;;-140.72;0.00;51863.31;4983802;28;19918;-71
2023/06/21 12:18:30;;;;;;;;;;;;;;;-140.72;0.00;51918.09;4987040;28;19922;-71
2023/06/21 12:20:58;;;;;;;;;;;;;;;-140.72;0.00;52015.50;4988529;28;19918;-71
2023/06/21 12:23:23;;;;;;;;;;;;;;;-140.72;0.00;51952.59;4987885;28;20013;-71
2023/06/21 12:25:50;;;;;;;;;;;;;;;-140.72;0.00;51944.47;4970297;28;20001;-71
2023/06/21 12:28:16;;;;;;;;;;;;;;;-140.72;0.00;51863.31;4993508;28;20010;-71
2023/06/21 12:30:47;;;;;;;;;;;;;;;-140.72;0.00;51907.97;4989884;28;20001;-71
2023/06/21 12:33:13;;;;;;;;;;;;;;;-140.72;0.00;52007.38;4982406;28;20395;-71
2023/06/21 12:35:38;;;;;;;;;;;;;;;-140.72;0.00;51993.19;4980553;28;19943;-71
2023/06/21 12:38:12;;;;;;;;;;;;;;;-140.72;0.00;51918.09;4993365;28;19940;-71
2023/06/21 12:40:37;;;;;;;;;;;;;;;-140.72;0.00;51940.41;4991243;28;20375;-71
2023/06/21 12:43:02;;;;;;;;;;;;;;;-140.72;0.00;51903.91;4994910;28;19917;-71
2023/06/21 12:45:27;;;;;;;;;;;;;;;-140.72;0.00;52035.78;4990784;28;19922;-71
2023/06/21 12:47:54;;;;;;;;;;;;;;;-140.72;0.00;52045.94;4993002;28;19944;-72
2023/06/21 12:50:22;;;;;;;;;;;;;;;-140.72;0.00;51928.25;4992165;28;19925;-71
2023/06/21 12:53:00;;;;;;;;;;;;;;;-140.72;0.00;51912.03;4975310;28;19921;-71
2023/06/21 12:55:26;;;;;;;;;;;;;;;-140.72;0.00;51851.16;4973375;28;19917;-72
2023/06/21 12:57:51;;;;;;;;;;;;;;;-140.72;0.00;51838.97;4992189;28;19927;-72
2023/06/21 13:00:16;;;;;;;;;;;;;;;-140.72;0.00;51847.09;4992230;28;19976;-72
2023/06/21 13:02:41;;;;;;;;;;;;;;;-140.72;0.00;51978.97;4988640;28;19918;-72
2023/06/21 13:05:07;;;;;;;;;;;;;;;-140.72;0.00;51924.19;4988021;28;20241;-72
2023/06/21 13:07:32;;;;;;;;;;;;;;;-140.72;0.00;51932.31;4987090;28;20320;-72
2023/06/21 13:09:57;;;;;;;;;;;;;;;-140.72;0.00;51822.75;4992088;28;19917;-72
2023/06/21 13:12:22;;;;;;;;;;;;;;;-140.72;0.00;51865.34;4991450;28;19954;-72
2023/06/21 13:14:48;;;;;;;;;;;;;;;-140.72;0.00;51834.91;4991750;28;20333;-72
2023/06/21 13:17:14;;;;;;;;;;;;;;;-140.72;0.00;51883.63;4991703;28;19918;-72
2023/06/21 13:19:39;;;;;;;;;;;;;;;-140.72;0.00;51875.50;4993828;28;20033;-72
2023/06/21 13:22:04;;;;;;;;;;;;;;;-140.72;0.00;51999.25;4994260;28;19925;-72
2023/06/21 13:24:30;;;;;;;;;;;;;;;-140.72;0.00;51916.06;4986679;28;19922;-71
2023/06/21 13:26:55;;;;;;;;;;;;;;;-140.72;0.00;51960.72;4985130;28;19925;-72
2023/06/21 13:29:20;;;;;;;;;;;;;;;-140.72;0.00;51812.59;4985487;28;19918;-72
2023/06/21 13:31:45;;;;;;;;;;;;;;;-140.72;0.00;51847.09;4977910;28;19944;-71
2023/06/21 13:34:10;;;;;;;;;;;;;;;-140.72;0.00;51905.94;4990565;28;19984;-71
2023/06/21 13:36:36;;;;;;;;;;;;;;;-140.72;0.00;51916.06;4990579;28;19918;-71
2023/06/21 13:39:01;;;;;;;;;;;;;;;-140.72;0.00;51891.72;4986975;28;19926;-71
2023/06/21 13:41:26;;;;;;;;;;;;;;;-140.72;0.00;51934.34;4974739;28;19925;-70
2023/06/21 13:43:51;;;;;;;;;;;;;;;-140.72;0.00;51978.97;4987296;28;19976;-70
2023/06/21 13:46:16;;;;;;;;;;;;;;;-140.72;0.00;51865.34;4991039;28;19940;-71
2023/06/21 13:48:42;;;;;;;;;;;;;;;-140.72;0.00;51812.59;4992224;28;20021;-71
2023/06/21 13:51:07;;;;;;;;;;;;;;;-140.72;0.00;51796.38;4997339;28;19922;-70
2023/06/21 13:53:33;;;;;;;;;;;;;;;-140.72;0.00;51800.44;5000767;28;19962;-71
2023/06/21 13:55:58;;;;;;;;;;;;;;;-140.72;0.00;51800.44;4990667;28;19960;-70
2023/06/21 13:58:26;;;;;;;;;;;;;;;-140.72;0.00;51847.09;4987190;28;20268;-71
2023/06/21 14:00:51;;;;;;;;;;;;;;;-140.72;0.00;51806.53;4971879;28;20303;-70
2023/06/21 14:03:16;;;;;;;;;;;;;;;-140.72;0.00;51849.13;4982918;28;19941;-71
2023/06/21 14:05:42;;;;;;;;;;;;;;;-140.72;0.00;51770.00;4992949;28;20001;-71
2023/06/21 14:08:07;;;;;;;;;;;;;;;-140.72;0.00;51806.53;4991911;28;19949;-72
2023/06/21 14:10:33;;;;;;;;;;;;;;;-140.72;0.00;51751.75;4990389;28;19937;-71
2023/06/21 14:12:58;;;;;;;;;;;;;;;-140.72;0.00;51786.22;4980652;28;19933;-71
2023/06/21 14:15:23;;;;;;;;;;;;;;;-140.72;0.00;51772.03;4989257;28;19949;-71
2023/06/21 14:17:49;;;;;;;;;;;;;;;-140.72;0.00;51699.00;4989279;28;19922;-71
2023/06/21 14:20:14;;;;;;;;;;;;;;;-140.72;0.00;51733.47;4986986;28;19930;-71
2023/06/21 14:22:39;;;;;;;;;;;;;;;-140.72;0.00;51668.56;4985135;28;20376;-72
2023/06/21 14:25:06;;;;;;;;;;;;;;;-140.72;0.00;51711.16;4973119;28;19922;-73
2023/06/21 14:27:31;;;;;;;;;;;;;;;-140.72;0.00;51713.19;4982364;28;19919;-72
2023/06/21 14:30:01;;;;;;;;;;;;;;;-140.72;0.00;51786.22;4981658;28;19937;-71
2023/06/21 14:32:26;;;;;;;;;;;;;;;-140.72;0.00;51802.47;4958568;28;19918;-74
2023/06/21 14:34:52;;;;;;;;;;;;;;;-140.72;0.00;51843.03;4989086;28;19945;-73
2023/06/21 14:37:17;;;;;;;;;;;;;;;-140.72;0.00;51788.25;4991517;28;19922;-71
2023/06/21 14:39:42;;;;;;;;;;;;;;;-140.72;0.00;51786.22;4977736;28;19921;-72
2023/06/21 14:42:08;;;;;;;;;;;;;;;-140.72;0.00;51737.53;4993739;28;20846;-74
2023/06/21 14:44:33;;;;;;;;;;;;;;;-140.72;0.00;51759.84;4994718;28;19932;-73
2023/06/21 14:46:59;;;;;;;;;;;;;;;-140.72;0.00;51761.88;4971253;28;19977;-74
2023/06/21 14:49:24;;;;;;;;;;;;;;;-140.72;0.00;51763.91;4993950;28;19961;-73
2023/06/21 14:51:49;;;;;;;;;;;;;;;-140.72;0.00;51737.53;4985365;28;19976;-74
2023/06/21 14:54:14;;;;;;;;;;;;;;;-140.72;0.00;51778.13;4978974;28;19918;-73
2023/06/21 14:56:40;;;;;;;;;;;;;;;-140.72;0.00;51794.34;4976726;28;19930;-73
2023/06/21 14:59:05;;;;;;;;;;;;;;;-140.72;0.00;51782.16;4989952;28;20067;-73
2023/06/21 15:01:30;;;;;;;;;;;;;;;-140.72;0.00;51767.97;4986669;28;19921;-72
2023/06/21 15:03:55;;;;;;;;;;;;;;;-140.72;0.00;51765.94;4992343;28;20013;-71
2023/06/21 15:06:21;;;;;;;;;;;;;;;-140.72;0.00;51792.31;4992923;28;19965;-73
2023/06/21 15:08:47;;;;;;;;;;;;;;;-140.72;0.00;51808.53;4988729;28;19921;-71
2023/06/21 15:11:12;;;;;;;;;;;;;;;-140.72;0.00;51845.06;4992759;28;19929;-71
2023/06/21 15:13:39;;;;;;;;;;;;;;;-140.72;0.00;51851.16;4980094;28;20036;-71
2023/06/21 15:16:04;;;;;;;;;;;;;;;-140.72;0.00;51867.38;4990552;28;19926;-71
2023/06/21 15:18:29;;;;;;;;;;;;;;;-140.72;0.00;51796.38;4971329;28;19929;-70
2023/06/21 15:20:55;;;;;;;;;;;;;;;-140.72;0.00;51792.31;4989033;28;19928;-71
2023/06/21 15:23:20;;;;;;;;;;;;;;;-140.72;0.00;51759.84;4973069;28;20308;-71
2023/06/21 15:25:45;;;;;;;;;;;;;;;-140.72;0.00;51751.75;4992210;28;19954;-71
2023/06/21 15:28:10;;;;;;;;;;;;;;;-140.72;0.00;51755.81;4980092;28;19918;-71
2023/06/21 15:30:35;;;;;;;;;;;;;;;-140.72;0.00;51757.81;4981991;28;19980;-70
2023/06/21 15:33:00;;;;;;;;;;;;;;;-140.72;0.00;51757.81;4983744;28;19953;-71
2023/06/21 15:35:26;;;;;;;;;;;;;;;-140.72;0.00;51751.75;4997216;28;20435;-71
2023/06/21 15:37:51;;;;;;;;;;;;;;;-140.72;0.00;51757.81;5000696;28;19921;-71
2023/06/21 15:40:16;;;;;;;;;;;;;;;-140.72;0.00;51790.28;4993192;28;19984;-72
2023/06/21 15:42:41;;;;;;;;;;;;;;;-140.72;0.00;51784.19;4991366;28;19922;-72
2023/06/21 15:45:07;;;;;;;;;;;;;;;-140.72;0.00;51830.88;4986017;28;19925;-73
2023/06/21 15:47:32;;;;;;;;;;;;;;;-140.72;0.00;51794.34;4988828;28;19922;-72
2023/06/21 15:49:57;;;;;;;;;;;;;;;-140.72;0.00;51838.97;4984277;28;20012;-70
2023/06/21 15:52:23;;;;;;;;;;;;;;;-140.72;0.00;51794.34;4989572;28;19922;-71
2023/06/21 15:54:49;;;;;;;;;;;;;;;-140.72;0.00;51808.53;4974316;28;19930;-71
2023/06/21 15:57:14;;;;;;;;;;;;;;;-140.72;0.00;51812.59;4991378;28;19930;-71
2023/06/21 15:59:40;;;;;;;;;;;;;;;-140.72;0.00;51800.44;4973740;28;20008;-73
2023/06/21 16:02:06;;;;;;;;;;;;;;;-140.72;0.00;51765.94;4965480;28;19922;-72
2023/06/21 16:04:31;;;;;;;;;;;;;;;-140.72;0.00;51814.63;4979664;28;19930;-72
2023/06/21 16:07:00;;;;;;;;;;;;;;;-140.72;0.00;51757.81;4989328;28;20367;-72
2023/06/21 16:09:26;;;;;;;;;;;;;;;-140.72;0.00;51745.66;4987962;28;19925;-73
2023/06/21 16:11:51;;;;;;;;;;;;;;;-140.72;0.00;51741.59;4965821;28;19941;-72
2023/06/21 16:14:16;;;;;;;;;;;;;;;-140.72;0.00;51765.94;4978317;28;19922;-72
2023/06/21 16:16:42;;;;;;;;;;;;;;;-140.72;0.00;51747.69;4989154;28;19990;-72
2023/06/21 16:19:07;;;;;;;;;;;;;;;-140.72;0.00;51772.03;4987653;28;19981;-73
2023/06/21 16:21:32;;;;;;;;;;;;;;;-140.72;0.00;51790.28;4991615;28;19925;-72
2023/06/21 16:23:58;;;;;;;;;;;;;;;-140.72;0.00;51808.53;4985772;28;19972;-73
2023/06/21 16:26:25;;;;;;;;;;;;;;;-140.72;0.00;51806.53;4986672;28;19921;-73
2023/06/21 16:28:50;;;;;;;;;;;;;;;-140.72;0.00;51810.56;4988113;28;19918;-72
2023/06/21 16:31:15;;;;;;;;;;;;;;;-140.72;0.00;51796.38;4966213;28;19929;-73
2023/06/21 16:33:41;;;;;;;;;;;;;;;-140.72;0.00;51843.03;4985872;28;19921;-71
2023/06/21 16:36:07;;;;;;;;;;;;;;;-140.72;0.00;51836.94;4991001;28;19952;-72
2023/06/21 16:38:33;;;;;;;;;;;;;;;-140.72;0.00;51881.59;4991920;28;19922;-72
2023/06/21 16:40:58;;;;;;;;;;;;;;;-140.72;0.00;51834.91;4992375;28;19925;-72
2023/06/21 16:43:23;;;;;;;;;;;;;;;-140.72;0.00;51838.97;4991691;28;19925;-72
2023/06/21 16:45:48;;;;;;;;;;;;;;;-140.72;0.00;51810.56;4991256;28;20005;-72
2023/06/21 16:48:15;;;;;;;;;;;;;;;-140.72;0.00;51838.97;4992779;28;20016;-72
2023/06/21 16:50:40;;;;;;;;;;;;;;;-140.72;0.00;51838.97;4972041;28;19922;-72
2023/06/21 16:53:07;;;;;;;;;;;;;;;-140.72;0.00;51893.75;4999381;28;20315;-72
2023/06/21 16:55:32;;;;;;;;;;;;;;;-140.72;0.00;51879.56;4991804;28;20054;-72
2023/06/21 16:57:57;;;;;;;;;;;;;;;-140.72;0.00;51861.28;4989088;28;19965;-73
2023/06/21 17:00:23;;;;;;;;;;;;;;;-140.72;0.00;51859.28;4991262;28;20364;-73
2023/06/21 17:02:52;;;;;;;;;;;;;;;-140.72;0.00;51820.72;4993426;28;20446;-71
2023/06/21 17:05:18;;;;;;;;;;;;;;;-140.72;0.00;51859.28;4991837;28;20049;-71
2023/06/21 17:07:44;;;;;;;;;;;;;;;-140.72;0.00;51863.31;4990232;28;20376;-70
2023/06/21 17:10:09;;;;;;;;;;;;;;;-140.72;0.00;51834.91;4988403;28;19922;-73
2023/06/21 17:12:35;;;;;;;;;;;;;;;-140.72;0.00;51851.16;4988837;28;20298;-71
2023/06/21 17:15:00;;;;;;;;;;;;;;;-140.72;0.00;51859.28;4987973;28;20380;-72
2023/06/21 17:17:25;;;;;;;;;;;;;;;-140.72;0.00;51814.63;4984520;28;19933;-72
2023/06/21 17:19:50;;;;;;;;;;;;;;;-140.72;0.00;51786.22;4993621;28;19918;-73
2023/06/21 17:22:15;;;;;;;;;;;;;;;-140.72;0.00;51828.84;4971280;28;20375;-72
2023/06/21 17:24:41;;;;;;;;;;;;;;;-140.72;0.00;51871.44;5002579;28;19921;-72
2023/06/21 17:27:07;;;;;;;;;;;;;;;-140.72;0.00;51930.28;4992792;28;19976;-71
2023/06/21 17:29:32;;;;;;;;;;;;;;;-140.72;0.00;51981.00;4974604;28;19922;-72
2023/06/21 17:32:00;;;;;;;;;;;;;;;-140.72;0.00;52013.47;4980933;28;19937;-71
2023/06/21 17:34:25;;;;;;;;;;;;;;;-140.72;0.00;52056.06;4972129;28;19984;-71
2023/06/21 17:36:50;;;;;;;;;;;;;;;-140.72;0.00;52098.69;4991179;28;20028;-71
2023/06/21 17:39:15;;;;;;;;;;;;;;;-140.72;0.00;52123.03;4992102;28;20360;-71
2023/06/21 17:41:41;;;;;;;;;;;;;;;-140.72;0.00;52125.06;4986165;28;19946;-72
2023/06/21 17:44:06;;;;;;;;;;;;;;;-140.72;0.00;52129.13;4981673;28;20327;-73
2023/06/21 17:46:31;;;;;;;;;;;;;;;-140.72;0.00;52163.59;4991579;28;20287;-72
2023/06/21 17:48:56;;;;;;;;;;;;;;;-140.72;0.00;52161.56;4982818;28;19926;-71
2023/06/21 17:51:23;;;;;;;;;;;;;;;-140.72;0.00;52210.28;4984821;28;20311;-72
2023/06/21 17:53:48;;;;;;;;;;;;;;;-140.72;0.00;52155.50;4985667;28;20004;-72
2023/06/21 17:56:13;;;;;;;;;;;;;;;-140.72;0.00;52204.19;4992664;28;20064;-72
2023/06/21 17:58:38;;;;;;;;;;;;;;;-140.72;0.00;52179.84;4977734;28;20016;-71
2023/06/21 18:01:40;;;;;;;;;;;;;;;-140.72;0.00;52204.19;4981687;28;20350;-72
2023/06/21 18:04:05;;;;;;;;;;;;;;;-140.72;0.00;52167.66;4972791;28;19922;-72
2023/06/21 18:06:30;;;;;;;;;;;;;;;-140.72;0.00;52238.69;4992424;28;19934;-71
2023/06/21 18:08:56;;;;;;;;;;;;;;;-140.72;0.00;52226.50;4990140;28;19918;-71
2023/06/21 18:11:21;;;;;;;;;;;;;;;-140.72;0.00;52204.19;4981533;28;20262;-71
2023/06/21 18:13:48;;;;;;;;;;;;;;;-140.72;0.00;52238.69;4987370;28;20450;-71
2023/06/21 18:16:13;;;;;;;;;;;;;;;-140.72;0.00;52258.97;4976459;28;19918;-71
2023/06/21 18:18:39;;;;;;;;;;;;;;;-140.72;0.00;52269.13;4991214;28;19944;-71
2023/06/21 18:21:05;;;;;;;;;;;;;;;-140.72;0.00;52230.56;4991355;28;19917;-71
2023/06/21 18:23:31;;;;;;;;;;;;;;;-140.72;0.00;52248.81;4967904;28;19933;-72
2023/06/21 18:25:56;;;;;;;;;;;;;;;-140.72;0.00;52240.72;4990624;28;20319;-72
2023/06/21 18:28:21;;;;;;;;;;;;;;;-140.72;0.00;52248.81;4978985;28;19972;-72
2023/06/21 18:30:47;;;;;;;;;;;;;;;-140.72;0.00;52234.63;4986974;28;19953;-72
2023/06/21 18:33:12;;;;;;;;;;;;;;;-140.72;0.00;52252.88;4957324;28;19922;-73
2023/06/21 18:35:39;;;;;;;;;;;;;;;-140.72;0.00;52246.78;4991508;28;19933;-73
2023/06/21 18:38:05;;;;;;;;;;;;;;;-140.72;0.00;52236.66;4993962;28;20312;-72
2023/06/21 18:40:30;;;;;;;;;;;;;;;-140.72;0.00;52240.72;4980405;28;19968;-72
2023/06/21 18:42:55;;;;;;;;;;;;;;;-140.72;0.00;52236.66;4986746;28;20005;-73
2023/06/21 18:45:20;;;;;;;;;;;;;;;-140.72;0.00;52240.72;4987266;28;19988;-72
2023/06/21 18:47:50;;;;;;;;;;;;;;;-140.72;0.00;52238.69;4971496;28;19996;-72
2023/06/21 18:50:15;;;;;;;;;;;;;;;-140.72;0.00;52224.47;4985540;28;20374;-72
2023/06/21 18:52:40;;;;;;;;;;;;;;;-140.72;0.00;52263.03;4992152;28;19921;-72
2023/06/21 18:55:06;;;;;;;;;;;;;;;-140.72;0.00;52273.19;4999921;28;19925;-72
2023/06/21 18:57:31;;;;;;;;;;;;;;;-140.72;0.00;52275.19;4992779;28;19960;-72
2023/06/21 18:59:56;;;;;;;;;;;;;;;-140.72;0.00;52295.50;4985545;28;20361;-72
2023/06/21 19:02:21;;;;;;;;;;;;;;;-140.72;0.00;52285.34;4984306;28;20014;-72
2023/06/21 19:04:47;;;;;;;;;;;;;;;-140.72;0.00;52285.34;4985161;28;20013;-73
2023/06/21 19:07:12;;;;;;;;;;;;;;;-140.72;0.00;52248.81;4990101;28;19945;-72
2023/06/21 19:09:37;;;;;;;;;;;;;;;-140.72;0.00;52273.19;4992118;28;19918;-72
2023/06/21 19:12:02;;;;;;;;;;;;;;;-140.72;0.00;52309.69;4987546;28;19922;-71
2023/06/21 19:14:28;;;;;;;;;;;;;;;-140.72;0.00;52267.09;4994596;28;20037;-71
2023/06/21 19:16:53;;;;;;;;;;;;;;;-140.72;0.00;52289.41;4991753;28;19925;-70
2023/06/21 19:19:18;;;;;;;;;;;;;;;-140.72;0.00;52283.31;4996454;28;19937;-70
2023/06/21 19:21:43;;;;;;;;;;;;;;;-140.72;0.00;52279.25;4981373;28;20372;-70
2023/06/21 19:24:08;;;;;;;;;;;;;;;-140.72;0.00;52301.59;4992864;28;19966;-70
2023/06/21 19:26:35;;;;;;;;;;;;;;;-140.72;0.00;52309.69;4993626;28;20040;-70
2023/06/21 19:29:00;;;;;;;;;;;;;;;-140.72;0.00;52321.88;4990546;28;20439;-69
2023/06/21 19:31:25;;;;;;;;;;;;;;;-140.72;0.00;52289.41;4989189;28;20012;-70
2023/06/21 19:33:50;;;;;;;;;;;;;;;-140.72;0.00;52267.09;4991173;28;19941;-70
2023/06/21 19:36:16;;;;;;;;;;;;;;;-140.72;0.00;52295.50;4989298;28;19929;-70
2023/06/21 19:38:41;;;;;;;;;;;;;;;-140.72;0.00;52277.22;4982110;28;19922;-70
2023/06/21 19:41:06;;;;;;;;;;;;;;;-140.72;0.00;52323.91;4985217;28;20399;-70
2023/06/21 19:43:31;;;;;;;;;;;;;;;-140.72;0.00;52346.22;4987162;28;19917;-70
2023/06/21 19:45:56;;;;;;;;;;;;;;;-140.72;0.00;52297.53;4987711;28;19930;-70